sensor_id;sensor_type;location;lat;lon;timestamp;pressure;altitude;pressure_sealevel;temperature;humidity
58295;BME280;45705;55.592;37.460;2023-04-19T00:01:48;99958.03;;;9.65;49.06
58295;BME280;45705;55.592;37.460;2023-04-19T00:04:14;99964.88;;;9.62;49.15
58295;BME280;45705;55.592;37.460;2023-04-19T00:06:40;99961.88;;;9.64;48.96
58295;BME280;45705;55.592;37.460;2023-04-19T00:09:07;99966.81;;;9.57;49.35
58295;BME280;45705;55.592;37.460;2023-04-19T00:11:33;99955.13;;;9.56;49.51
58295;BME280;45705;55.592;37.460;2023-04-19T00:13:58;99963.56;;;9.55;49.53
58295;BME280;45705;55.592;37.460;2023-04-19T00:16:24;99958.13;;;9.55;49.57
58295;BME280;45705;55.592;37.460;2023-04-19T00:18:50;99959.25;;;9.49;49.79
58295;BME280;45705;55.592;37.460;2023-04-19T00:21:16;99955.44;;;9.50;49.87
58295;BME280;45705;55.592;37.460;2023-04-19T00:23:41;99955.75;;;9.48;49.71
58295;BME280;45705;55.592;37.460;2023-04-19T00:26:07;99964.97;;;9.47;49.79
58295;BME280;45705;55.592;37.460;2023-04-19T00:28:33;99967.94;;;9.51;49.77
58295;BME280;45705;55.592;37.460;2023-04-19T00:30:59;99964.69;;;9.49;49.89
58295;BME280;45705;55.592;37.460;2023-04-19T00:33:25;99958.44;;;9.48;49.99
58295;BME280;45705;55.592;37.460;2023-04-19T00:35:50;99962.78;;;9.44;50.31
58295;BME280;45705;55.592;37.460;2023-04-19T00:38:18;99965.22;;;9.51;50.27
58295;BME280;45705;55.592;37.460;2023-04-19T00:40:44;99961.13;;;9.53;50.05
58295;BME280;45705;55.592;37.460;2023-04-19T00:43:11;99973.34;;;9.51;49.82
58295;BME280;45705;55.592;37.460;2023-04-19T00:45:37;99968.97;;;9.55;50.08
58295;BME280;45705;55.592;37.460;2023-04-19T00:48:03;99970.66;;;9.45;50.12
58295;BME280;45705;55.592;37.460;2023-04-19T00:50:29;99972.03;;;9.43;50.16
58295;BME280;45705;55.592;37.460;2023-04-19T00:52:55;99978.81;;;9.45;50.28
58295;BME280;45705;55.592;37.460;2023-04-19T00:55:23;99965.81;;;9.42;50.53
58295;BME280;45705;55.592;37.460;2023-04-19T00:57:49;99969.06;;;9.44;50.43
58295;BME280;45705;55.592;37.460;2023-04-19T01:00:16;99972.28;;;9.46;50.59
58295;BME280;45705;55.592;37.460;2023-04-19T01:02:43;99974.22;;;9.41;50.61
58295;BME280;45705;55.592;37.460;2023-04-19T01:05:10;99968.53;;;9.37;50.73
58295;BME280;45705;55.592;37.460;2023-04-19T01:07:38;99966.91;;;9.36;50.60
58295;BME280;45705;55.592;37.460;2023-04-19T01:10:04;99971.28;;;9.32;51.06
58295;BME280;45705;55.592;37.460;2023-04-19T01:12:30;99965.84;;;9.37;50.91
58295;BME280;45705;55.592;37.460;2023-04-19T01:14:56;99964.44;;;9.45;50.70
58295;BME280;45705;55.592;37.460;2023-04-19T01:17:22;99976.69;;;9.37;50.80
58295;BME280;45705;55.592;37.460;2023-04-19T01:19:48;99964.25;;;9.31;50.99
58295;BME280;45705;55.592;37.460;2023-04-19T01:22:22;99972.38;;;9.31;51.07
58295;BME280;45705;55.592;37.460;2023-04-19T01:24:48;99970.19;;;9.38;50.98
58295;BME280;45705;55.592;37.460;2023-04-19T01:27:14;99980.19;;;9.38;50.69
58295;BME280;45705;55.592;37.460;2023-04-19T01:29:42;99973.97;;;9.37;50.59
58295;BME280;45705;55.592;37.460;2023-04-19T01:32:08;99974.78;;;9.38;50.26
58295;BME280;45705;55.592;37.460;2023-04-19T01:34:33;99973.19;;;9.32;50.25
58295;BME280;45705;55.592;37.460;2023-04-19T01:36:59;99976.75;;;9.27;50.54
58295;BME280;45705;55.592;37.460;2023-04-19T01:39:25;99989.47;;;9.26;50.38
58295;BME280;45705;55.592;37.460;2023-04-19T01:41:51;99975.91;;;9.32;50.47
58295;BME280;45705;55.592;37.460;2023-04-19T01:44:17;99973.47;;;9.30;50.05
58295;BME280;45705;55.592;37.460;2023-04-19T01:46:43;99974.31;;;9.25;50.50
58295;BME280;45705;55.592;37.460;2023-04-19T01:49:08;99972.94;;;9.28;49.89
58295;BME280;45705;55.592;37.460;2023-04-19T01:51:36;99982.19;;;9.27;49.77
58295;BME280;45705;55.592;37.460;2023-04-19T01:54:02;99979.19;;;9.23;50.06
58295;BME280;45705;55.592;37.460;2023-04-19T01:56:28;99971.34;;;9.22;50.25
58295;BME280;45705;55.592;37.460;2023-04-19T01:58:54;99979.47;;;9.27;49.92
58295;BME280;45705;55.592;37.460;2023-04-19T02:01:20;99971.06;;;9.29;50.24
58295;BME280;45705;55.592;37.460;2023-04-19T02:03:46;99980.00;;;9.24;50.10
58295;BME280;45705;55.592;37.460;2023-04-19T02:06:12;99969.72;;;9.21;50.26
58295;BME280;45705;55.592;37.460;2023-04-19T02:08:39;99975.44;;;9.14;50.44
58295;BME280;45705;55.592;37.460;2023-04-19T02:11:09;99976.25;;;9.15;50.61
58295;BME280;45705;55.592;37.460;2023-04-19T02:13:35;99974.13;;;9.06;50.45
58295;BME280;45705;55.592;37.460;2023-04-19T02:16:01;99964.94;;;8.97;50.57
58295;BME280;45705;55.592;37.460;2023-04-19T02:18:28;99967.69;;;8.92;51.19
58295;BME280;45705;55.592;37.460;2023-04-19T02:20:57;99976.09;;;8.91;50.72
58295;BME280;45705;55.592;37.460;2023-04-19T02:23:24;99977.16;;;8.95;50.79
58295;BME280;45705;55.592;37.460;2023-04-19T02:25:50;99979.34;;;8.87;50.88
58295;BME280;45705;55.592;37.460;2023-04-19T02:28:16;99978.81;;;8.85;51.23
58295;BME280;45705;55.592;37.460;2023-04-19T02:30:42;99980.72;;;8.85;51.31
58295;BME280;45705;55.592;37.460;2023-04-19T02:33:08;99978.31;;;8.78;51.21
58295;BME280;45705;55.592;37.460;2023-04-19T02:35:34;99986.66;;;8.82;51.19
58295;BME280;45705;55.592;37.460;2023-04-19T02:38:02;99978.00;;;8.85;51.09
58295;BME280;45705;55.592;37.460;2023-04-19T02:40:28;99982.03;;;8.87;50.75
58295;BME280;45705;55.592;37.460;2023-04-19T02:42:57;99981.81;;;8.74;51.18
58295;BME280;45705;55.592;37.460;2023-04-19T02:45:23;99988.31;;;8.83;50.91
58295;BME280;45705;55.592;37.460;2023-04-19T02:47:49;99984.53;;;8.74;51.01
58295;BME280;45705;55.592;37.460;2023-04-19T02:50:15;99991.31;;;8.76;50.74
58295;BME280;45705;55.592;37.460;2023-04-19T02:52:46;99987.22;;;8.84;50.81
58295;BME280;45705;55.592;37.460;2023-04-19T02:55:12;99995.38;;;8.79;50.34
58295;BME280;45705;55.592;37.460;2023-04-19T02:57:38;99992.09;;;8.82;50.40
58295;BME280;45705;55.592;37.460;2023-04-19T03:00:07;99983.97;;;8.82;50.44
58295;BME280;45705;55.592;37.460;2023-04-19T03:02:35;99983.16;;;8.81;50.15
58295;BME280;45705;55.592;37.460;2023-04-19T03:05:02;99983.97;;;8.82;50.32
58295;BME280;45705;55.592;37.460;2023-04-19T03:07:29;99981.50;;;8.91;49.91
58295;BME280;45705;55.592;37.460;2023-04-19T03:09:54;99986.13;;;8.90;50.21
58295;BME280;45705;55.592;37.460;2023-04-19T03:12:20;99984.47;;;8.94;50.15
58295;BME280;45705;55.592;37.460;2023-04-19T03:14:45;99984.44;;;9.10;49.48
58295;BME280;45705;55.592;37.460;2023-04-19T03:17:12;99986.28;;;9.14;49.26
58295;BME280;45705;55.592;37.460;2023-04-19T03:19:37;99987.88;;;9.25;49.08
58295;BME280;45705;55.592;37.460;2023-04-19T03:22:04;99989.19;;;9.33;48.70
58295;BME280;45705;55.592;37.460;2023-04-19T03:24:31;99989.13;;;9.88;47.10
58295;BME280;45705;55.592;37.460;2023-04-19T03:27:04;99985.69;;;10.46;45.40
58295;BME280;45705;55.592;37.460;2023-04-19T03:29:30;99985.88;;;11.03;44.00
58295;BME280;45705;55.592;37.460;2023-04-19T03:32:02;99982.84;;;11.67;42.13
58295;BME280;45705;55.592;37.460;2023-04-19T03:34:29;99965.00;;;13.00;39.33
58295;BME280;45705;55.592;37.460;2023-04-19T03:36:54;99975.72;;;13.38;38.17
58295;BME280;45705;55.592;37.460;2023-04-19T03:39:20;99985.31;;;12.94;38.65
58295;BME280;45705;55.592;37.460;2023-04-19T03:41:49;99984.41;;;13.27;37.78
58295;BME280;45705;55.592;37.460;2023-04-19T03:44:43;99983.41;;;13.36;37.23
58295;BME280;45705;55.592;37.460;2023-04-19T03:47:10;99986.34;;;14.22;36.21
58295;BME280;45705;55.592;37.460;2023-04-19T03:49:41;99966.09;;;14.54;35.71
58295;BME280;45705;55.592;37.460;2023-04-19T03:52:06;99980.41;;;14.82;34.67
58295;BME280;45705;55.592;37.460;2023-04-19T03:54:33;99982.50;;;15.34;33.62
58295;BME280;45705;55.592;37.460;2023-04-19T03:57:00;99979.13;;;15.46;33.10
58295;BME280;45705;55.592;37.460;2023-04-19T03:59:26;99972.84;;;15.63;33.04
58295;BME280;45705;55.592;37.460;2023-04-19T04:01:53;99975.59;;;16.06;32.28
58295;BME280;45705;55.592;37.460;2023-04-19T04:04:18;99981.91;;;16.63;31.74
58295;BME280;45705;55.592;37.460;2023-04-19T04:06:44;99971.66;;;16.42;31.25
58295;BME280;45705;55.592;37.460;2023-04-19T04:09:13;99976.88;;;16.18;31.58
58295;BME280;45705;55.592;37.460;2023-04-19T04:11:40;99986.06;;;16.30;31.36
58295;BME280;45705;55.592;37.460;2023-04-19T04:14:06;99990.72;;;16.30;31.49
58295;BME280;45705;55.592;37.460;2023-04-19T04:16:35;99987.56;;;15.75;32.08
58295;BME280;45705;55.592;37.460;2023-04-19T04:19:00;99988.53;;;17.09;30.28
58295;BME280;45705;55.592;37.460;2023-04-19T04:21:29;99983.47;;;16.81;30.29
58295;BME280;45705;55.592;37.460;2023-04-19T04:23:57;99995.78;;;16.75;30.77
58295;BME280;45705;55.592;37.460;2023-04-19T04:26:35;99988.50;;;15.97;31.43
58295;BME280;45705;55.592;37.460;2023-04-19T04:29:22;99998.22;;;16.03;31.34
58295;BME280;45705;55.592;37.460;2023-04-19T04:31:49;99990.03;;;17.57;30.01
58295;BME280;45705;55.592;37.460;2023-04-19T04:34:19;99989.47;;;17.13;29.94
58295;BME280;45705;55.592;37.460;2023-04-19T04:36:51;99990.88;;;17.28;30.27
58295;BME280;45705;55.592;37.460;2023-04-19T04:39:19;99986.69;;;18.27;29.23
58295;BME280;45705;55.592;37.460;2023-04-19T04:41:47;99998.84;;;17.93;28.69
58295;BME280;45705;55.592;37.460;2023-04-19T04:44:13;100001.91;;;17.49;29.18
58295;BME280;45705;55.592;37.460;2023-04-19T04:46:41;99990.50;;;18.01;28.89
58295;BME280;45705;55.592;37.460;2023-04-19T04:49:10;99998.75;;;17.00;29.67
58295;BME280;45705;55.592;37.460;2023-04-19T04:51:36;99996.38;;;16.33;31.48
58295;BME280;45705;55.592;37.460;2023-04-19T04:54:03;99993.81;;;16.84;30.53
58295;BME280;45705;55.592;37.460;2023-04-19T04:56:30;100000.09;;;16.29;31.29
58295;BME280;45705;55.592;37.460;2023-04-19T04:58:56;99997.09;;;15.78;31.84
58295;BME280;45705;55.592;37.460;2023-04-19T05:01:29;100016.41;;;14.67;33.52
58295;BME280;45705;55.592;37.460;2023-04-19T05:03:55;100001.59;;;15.08;33.29
58295;BME280;45705;55.592;37.460;2023-04-19T05:06:21;99995.47;;;15.94;32.18
58295;BME280;45705;55.592;37.460;2023-04-19T05:08:46;100012.34;;;16.40;31.00
58295;BME280;45705;55.592;37.460;2023-04-19T05:11:32;100011.97;;;16.68;30.53
58295;BME280;45705;55.592;37.460;2023-04-19T05:13:58;100016.75;;;16.88;30.64
58295;BME280;45705;55.592;37.460;2023-04-19T05:16:25;100017.59;;;17.69;29.84
58295;BME280;45705;55.592;37.460;2023-04-19T05:18:52;100030.53;;;17.18;30.02
58295;BME280;45705;55.592;37.460;2023-04-19T05:21:18;100021.81;;;17.16;30.32
58295;BME280;45705;55.592;37.460;2023-04-19T05:23:44;100029.31;;;16.98;30.04
58295;BME280;45705;55.592;37.460;2023-04-19T05:26:12;100018.06;;;17.71;29.45
58295;BME280;45705;55.592;37.460;2023-04-19T05:28:41;100030.81;;;16.78;29.91
58295;BME280;45705;55.592;37.460;2023-04-19T05:31:17;100024.56;;;17.16;30.02
58295;BME280;45705;55.592;37.460;2023-04-19T05:33:54;100009.09;;;19.45;27.83
58295;BME280;45705;55.592;37.460;2023-04-19T05:36:20;100013.75;;;18.25;28.35
58295;BME280;45705;55.592;37.460;2023-04-19T05:38:46;100011.09;;;17.23;29.87
58295;BME280;45705;55.592;37.460;2023-04-19T05:41:11;100051.41;;;17.10;29.70
58295;BME280;45705;55.592;37.460;2023-04-19T05:43:37;100015.72;;;17.61;29.94
58295;BME280;45705;55.592;37.460;2023-04-19T05:46:05;100020.19;;;17.15;29.65
58295;BME280;45705;55.592;37.460;2023-04-19T05:48:31;100018.13;;;17.63;28.77
58295;BME280;45705;55.592;37.460;2023-04-19T05:51:16;100039.34;;;17.62;29.19
58295;BME280;45705;55.592;37.460;2023-04-19T05:53:59;100044.06;;;17.23;29.58
58295;BME280;45705;55.592;37.460;2023-04-19T05:56:24;100035.94;;;17.36;29.99
58295;BME280;45705;55.592;37.460;2023-04-19T05:58:50;100048.34;;;17.42;29.81
58295;BME280;45705;55.592;37.460;2023-04-19T06:01:16;100036.00;;;17.48;29.74
58295;BME280;45705;55.592;37.460;2023-04-19T06:03:42;100047.78;;;18.20;28.94
58295;BME280;45705;55.592;37.460;2023-04-19T06:06:08;100045.63;;;18.26;28.18
58295;BME280;45705;55.592;37.460;2023-04-19T06:08:33;100037.34;;;18.80;27.63
58295;BME280;45705;55.592;37.460;2023-04-19T06:11:00;100042.63;;;17.77;29.03
58295;BME280;45705;55.592;37.460;2023-04-19T06:13:25;100050.31;;;17.32;29.12
58295;BME280;45705;55.592;37.460;2023-04-19T06:15:51;100053.06;;;16.21;30.29
58295;BME280;45705;55.592;37.460;2023-04-19T06:18:17;100049.19;;;16.04;31.01
58295;BME280;45705;55.592;37.460;2023-04-19T06:20:42;100060.19;;;15.47;31.83
58295;BME280;45705;55.592;37.460;2023-04-19T06:23:08;100056.91;;;15.85;30.91
58295;BME280;45705;55.592;37.460;2023-04-19T06:25:34;100047.59;;;16.03;31.17
58295;BME280;45705;55.592;37.460;2023-04-19T06:28:00;100067.75;;;16.25;30.68
58295;BME280;45705;55.592;37.460;2023-04-19T06:30:26;100069.81;;;15.93;30.50
58295;BME280;45705;55.592;37.460;2023-04-19T06:32:51;100051.06;;;16.47;29.93
58295;BME280;45705;55.592;37.460;2023-04-19T06:35:18;100056.06;;;16.63;29.61
58295;BME280;45705;55.592;37.460;2023-04-19T06:37:43;100053.78;;;16.73;29.23
58295;BME280;45705;55.592;37.460;2023-04-19T06:40:09;100056.81;;;16.89;28.76
58295;BME280;45705;55.592;37.460;2023-04-19T06:42:36;100051.66;;;17.26;28.73
58295;BME280;45705;55.592;37.460;2023-04-19T06:45:02;100047.28;;;18.06;27.55
58295;BME280;45705;55.592;37.460;2023-04-19T06:47:30;100048.38;;;18.26;27.05
58295;BME280;45705;55.592;37.460;2023-04-19T06:49:56;100044.13;;;18.49;26.85
58295;BME280;45705;55.592;37.460;2023-04-19T06:52:22;100053.22;;;18.62;26.32
58295;BME280;45705;55.592;37.460;2023-04-19T06:54:48;100044.38;;;18.57;26.35
58295;BME280;45705;55.592;37.460;2023-04-19T06:57:15;100030.59;;;19.15;25.93
58295;BME280;45705;55.592;37.460;2023-04-19T06:59:41;100046.06;;;19.93;25.21
58295;BME280;45705;55.592;37.460;2023-04-19T07:02:06;100045.16;;;19.52;24.93
58295;BME280;45705;55.592;37.460;2023-04-19T07:04:32;100053.44;;;19.03;25.88
58295;BME280;45705;55.592;37.460;2023-04-19T07:06:58;100028.03;;;18.39;26.31
58295;BME280;45705;55.592;37.460;2023-04-19T07:09:25;100054.09;;;17.19;27.27
58295;BME280;45705;55.592;37.460;2023-04-19T07:11:50;100056.28;;;17.05;27.96
58295;BME280;45705;55.592;37.460;2023-04-19T07:14:16;100040.47;;;18.58;26.39
58295;BME280;45705;55.592;37.460;2023-04-19T07:16:45;100063.41;;;17.95;26.75
58295;BME280;45705;55.592;37.460;2023-04-19T07:19:12;100063.19;;;17.49;27.37
58295;BME280;45705;55.592;37.460;2023-04-19T07:21:38;100045.50;;;17.29;27.27
58295;BME280;45705;55.592;37.460;2023-04-19T07:24:05;100054.50;;;17.68;26.72
58295;BME280;45705;55.592;37.460;2023-04-19T07:26:32;100050.09;;;17.46;27.22
58295;BME280;45705;55.592;37.460;2023-04-19T07:28:58;100039.06;;;17.55;27.69
58295;BME280;45705;55.592;37.460;2023-04-19T07:31:24;100034.06;;;17.99;27.09
58295;BME280;45705;55.592;37.460;2023-04-19T07:33:50;100026.19;;;18.43;26.26
58295;BME280;45705;55.592;37.460;2023-04-19T07:36:17;100032.53;;;19.26;25.47
58295;BME280;45705;55.592;37.460;2023-04-19T07:38:43;100049.41;;;18.55;25.53
58295;BME280;45705;55.592;37.460;2023-04-19T07:41:09;100059.34;;;17.12;26.97
58295;BME280;45705;55.592;37.460;2023-04-19T07:43:35;100060.53;;;16.76;27.79
58295;BME280;45705;55.592;37.460;2023-04-19T07:46:07;100046.25;;;16.44;28.23
58295;BME280;45705;55.592;37.460;2023-04-19T07:48:33;100038.72;;;16.88;27.67
58295;BME280;45705;55.592;37.460;2023-04-19T07:51:12;100055.53;;;16.78;27.71
58295;BME280;45705;55.592;37.460;2023-04-19T07:53:39;100050.38;;;16.85;27.81
58295;BME280;45705;55.592;37.460;2023-04-19T07:56:07;100047.25;;;15.79;28.74
58295;BME280;45705;55.592;37.460;2023-04-19T07:58:33;100071.03;;;15.52;29.33
58295;BME280;45705;55.592;37.460;2023-04-19T08:00:59;100077.56;;;14.93;29.98
58295;BME280;45705;55.592;37.460;2023-04-19T08:03:25;100050.41;;;15.63;29.37
58295;BME280;45705;55.592;37.460;2023-04-19T08:05:51;100062.63;;;15.48;28.82
58295;BME280;45705;55.592;37.460;2023-04-19T08:08:17;100049.19;;;15.29;29.64
58295;BME280;45705;55.592;37.460;2023-04-19T08:10:43;100066.84;;;15.06;29.94
58295;BME280;45705;55.592;37.460;2023-04-19T08:13:09;100051.31;;;15.32;29.87
58295;BME280;45705;55.592;37.460;2023-04-19T08:15:34;100044.66;;;15.25;29.55
58295;BME280;45705;55.592;37.460;2023-04-19T08:18:00;100040.44;;;15.10;29.57
58295;BME280;45705;55.592;37.460;2023-04-19T08:20:29;100042.41;;;15.27;29.45
58295;BME280;45705;55.592;37.460;2023-04-19T08:22:57;100049.69;;;15.98;29.34
58295;BME280;45705;55.592;37.460;2023-04-19T08:25:23;100033.34;;;15.84;28.92
58295;BME280;45705;55.592;37.460;2023-04-19T08:27:53;100057.84;;;15.14;29.36
58295;BME280;45705;55.592;37.460;2023-04-19T08:30:19;100054.28;;;15.13;29.69
58295;BME280;45705;55.592;37.460;2023-04-19T08:32:45;100042.28;;;15.41;29.55
58295;BME280;45705;55.592;37.460;2023-04-19T08:35:12;100042.72;;;15.16;29.96
58295;BME280;45705;55.592;37.460;2023-04-19T08:37:38;100039.03;;;14.81;30.35
58295;BME280;45705;55.592;37.460;2023-04-19T08:40:04;100042.09;;;15.28;30.33
58295;BME280;45705;55.592;37.460;2023-04-19T08:42:32;100040.25;;;15.64;30.33
58295;BME280;45705;55.592;37.460;2023-04-19T08:45:00;100041.47;;;15.31;30.14
58295;BME280;45705;55.592;37.460;2023-04-19T08:47:33;100040.75;;;15.08;30.76
58295;BME280;45705;55.592;37.460;2023-04-19T08:50:00;100021.03;;;15.38;30.39
58295;BME280;45705;55.592;37.460;2023-04-19T08:52:29;100035.78;;;15.77;30.05
58295;BME280;45705;55.592;37.460;2023-04-19T08:54:54;100033.16;;;15.71;30.05
58295;BME280;45705;55.592;37.460;2023-04-19T08:57:21;100027.88;;;15.84;30.07
58295;BME280;45705;55.592;37.460;2023-04-19T08:59:46;100044.09;;;15.54;29.75
58295;BME280;45705;55.592;37.460;2023-04-19T09:02:16;100037.25;;;15.25;30.75
58295;BME280;45705;55.592;37.460;2023-04-19T09:04:42;100032.56;;;15.74;29.96
58295;BME280;45705;55.592;37.460;2023-04-19T09:07:07;100020.78;;;15.83;30.04
58295;BME280;45705;55.592;37.460;2023-04-19T09:09:33;100018.63;;;15.53;29.85
58295;BME280;45705;55.592;37.460;2023-04-19T09:12:00;100028.59;;;15.41;29.77
58295;BME280;45705;55.592;37.460;2023-04-19T09:14:27;100033.59;;;15.39;30.36
58295;BME280;45705;55.592;37.460;2023-04-19T09:16:53;100027.97;;;15.44;30.06
58295;BME280;45705;55.592;37.460;2023-04-19T09:19:18;100021.31;;;15.27;29.85
58295;BME280;45705;55.592;37.460;2023-04-19T09:21:45;100013.03;;;16.02;29.37
58295;BME280;45705;55.592;37.460;2023-04-19T09:24:11;100015.44;;;16.12;29.45
58295;BME280;45705;55.592;37.460;2023-04-19T09:26:36;100014.50;;;15.82;29.32
58295;BME280;45705;55.592;37.460;2023-04-19T09:29:04;100030.25;;;15.59;29.30
58295;BME280;45705;55.592;37.460;2023-04-19T09:31:34;100025.84;;;15.32;29.31
58295;BME280;45705;55.592;37.460;2023-04-19T09:34:15;100012.00;;;15.46;28.99
58295;BME280;45705;55.592;37.460;2023-04-19T09:36:41;99999.66;;;15.74;28.64
58295;BME280;45705;55.592;37.460;2023-04-19T09:39:07;100011.41;;;15.84;28.37
58295;BME280;45705;55.592;37.460;2023-04-19T09:41:33;99997.66;;;15.66;27.97
58295;BME280;45705;55.592;37.460;2023-04-19T09:44:09;99998.31;;;15.63;27.97
58295;BME280;45705;55.592;37.460;2023-04-19T09:46:40;100010.41;;;15.62;27.90
58295;BME280;45705;55.592;37.460;2023-04-19T09:51:42;100018.06;;;15.25;28.44
58295;BME280;45705;55.592;37.460;2023-04-19T09:54:10;100009.09;;;15.33;28.62
58295;BME280;45705;55.592;37.460;2023-04-19T09:56:36;100019.91;;;15.47;28.27
58295;BME280;45705;55.592;37.460;2023-04-19T09:59:02;100005.09;;;15.66;28.36
58295;BME280;45705;55.592;37.460;2023-04-19T10:01:30;100016.22;;;15.52;28.15
58295;BME280;45705;55.592;37.460;2023-04-19T10:03:59;100003.31;;;15.61;28.05
58295;BME280;45705;55.592;37.460;2023-04-19T10:06:27;100012.50;;;15.48;28.11
58295;BME280;45705;55.592;37.460;2023-04-19T10:08:53;99999.13;;;15.55;28.14
58295;BME280;45705;55.592;37.460;2023-04-19T10:11:20;99996.88;;;15.57;27.93
58295;BME280;45705;55.592;37.460;2023-04-19T10:13:47;99993.34;;;16.00;27.26
58295;BME280;45705;55.592;37.460;2023-04-19T10:16:15;99999.47;;;16.14;27.49
58295;BME280;45705;55.592;37.460;2023-04-19T10:18:41;99988.69;;;15.83;27.93
58295;BME280;45705;55.592;37.460;2023-04-19T10:21:08;100007.41;;;15.81;28.01
58295;BME280;45705;55.592;37.460;2023-04-19T10:23:36;99990.88;;;15.46;28.50
58295;BME280;45705;55.592;37.460;2023-04-19T10:26:02;99980.47;;;15.92;28.08
58295;BME280;45705;55.592;37.460;2023-04-19T10:28:28;100007.38;;;15.72;27.90
58295;BME280;45705;55.592;37.460;2023-04-19T10:31:03;99989.78;;;16.08;28.31
58295;BME280;45705;55.592;37.460;2023-04-19T10:33:36;99988.84;;;15.87;28.01
58295;BME280;45705;55.592;37.460;2023-04-19T10:36:02;99983.84;;;15.80;27.84
58295;BME280;45705;55.592;37.460;2023-04-19T10:38:36;99987.81;;;15.48;28.22
58295;BME280;45705;55.592;37.460;2023-04-19T10:41:02;99976.88;;;15.65;28.19
58295;BME280;45705;55.592;37.460;2023-04-19T10:43:30;99978.34;;;16.06;27.71
58295;BME280;45705;55.592;37.460;2023-04-19T10:46:34;99976.06;;;16.08;28.07
58295;BME280;45705;55.592;37.460;2023-04-19T10:49:02;99979.00;;;15.68;28.20
58295;BME280;45705;55.592;37.460;2023-04-19T10:51:36;99985.63;;;15.85;28.08
58295;BME280;45705;55.592;37.460;2023-04-19T10:54:04;99966.09;;;15.86;28.05
58295;BME280;45705;55.592;37.460;2023-04-19T11:04:05;99953.94;;;16.22;27.63
58295;BME280;45705;55.592;37.460;2023-04-19T11:06:32;99966.88;;;15.69;28.38
58295;BME280;45705;55.592;37.460;2023-04-19T11:08:58;99959.50;;;15.79;28.34
58295;BME280;45705;55.592;37.460;2023-04-19T11:11:25;99956.28;;;15.77;28.84
58295;BME280;45705;55.592;37.460;2023-04-19T11:13:54;99947.84;;;15.99;27.99
58295;BME280;45705;55.592;37.460;2023-04-19T11:16:20;99939.38;;;16.39;27.98
58295;BME280;45705;55.592;37.460;2023-04-19T11:18:45;99946.47;;;16.79;27.67
58295;BME280;45705;55.592;37.460;2023-04-19T11:21:12;99946.22;;;16.63;27.70
58295;BME280;45705;55.592;37.460;2023-04-19T11:23:38;99943.81;;;16.61;27.52
58295;BME280;45705;55.592;37.460;2023-04-19T11:26:04;99953.91;;;16.78;27.50
58295;BME280;45705;55.592;37.460;2023-04-19T11:28:32;99953.94;;;16.31;27.95
58295;BME280;45705;55.592;37.460;2023-04-19T11:30:58;99954.31;;;16.03;28.21
58295;BME280;45705;55.592;37.460;2023-04-19T11:33:24;99944.69;;;16.44;27.91
58295;BME280;45705;55.592;37.460;2023-04-19T11:35:50;99941.09;;;15.88;28.11
58295;BME280;45705;55.592;37.460;2023-04-19T11:38:16;99943.91;;;16.35;27.84
58295;BME280;45705;55.592;37.460;2023-04-19T11:40:42;99936.84;;;16.17;28.28
58295;BME280;45705;55.592;37.460;2023-04-19T11:43:07;99930.72;;;16.11;28.50
58295;BME280;45705;55.592;37.460;2023-04-19T11:45:35;99935.78;;;16.47;28.33
58295;BME280;45705;55.592;37.460;2023-04-19T11:48:03;99939.72;;;16.29;28.34
58295;BME280;45705;55.592;37.460;2023-04-19T11:50:42;99939.63;;;15.99;28.49
58295;BME280;45705;55.592;37.460;2023-04-19T11:53:16;99939.47;;;16.04;28.68
58295;BME280;45705;55.592;37.460;2023-04-19T11:55:46;99927.38;;;15.79;28.90
58295;BME280;45705;55.592;37.460;2023-04-19T12:00:51;99931.75;;;15.89;29.00
58295;BME280;45705;55.592;37.460;2023-04-19T12:03:20;99922.06;;;15.83;28.99
58295;BME280;45705;55.592;37.460;2023-04-19T12:05:57;99928.84;;;15.94;28.77
58295;BME280;45705;55.592;37.460;2023-04-19T12:08:37;99912.41;;;16.41;27.97
58295;BME280;45705;55.592;37.460;2023-04-19T12:11:04;99919.78;;;16.49;27.83
58295;BME280;45705;55.592;37.460;2023-04-19T12:13:31;99909.50;;;16.46;27.88
58295;BME280;45705;55.592;37.460;2023-04-19T12:15:57;99908.38;;;17.07;27.33
58295;BME280;45705;55.592;37.460;2023-04-19T12:18:23;99910.31;;;16.85;27.26
58295;BME280;45705;55.592;37.460;2023-04-19T12:20:51;99905.59;;;16.86;27.55
58295;BME280;45705;55.592;37.460;2023-04-19T12:23:18;99908.34;;;16.47;27.55
58295;BME280;45705;55.592;37.460;2023-04-19T12:25:46;99916.81;;;16.25;27.94
58295;BME280;45705;55.592;37.460;2023-04-19T12:28:13;99906.75;;;16.46;28.15
58295;BME280;45705;55.592;37.460;2023-04-19T12:30:40;99913.25;;;16.33;27.81
58295;BME280;45705;55.592;37.460;2023-04-19T12:33:07;99913.19;;;16.50;27.71
58295;BME280;45705;55.592;37.460;2023-04-19T12:35:33;99910.75;;;16.49;27.61
58295;BME280;45705;55.592;37.460;2023-04-19T12:37:59;99905.25;;;16.58;27.42
58295;BME280;45705;55.592;37.460;2023-04-19T12:40:26;99897.16;;;16.23;27.70
58295;BME280;45705;55.592;37.460;2023-04-19T12:42:52;99897.09;;;16.40;27.26
58295;BME280;45705;55.592;37.460;2023-04-19T12:45:19;99892.75;;;16.30;27.12
58295;BME280;45705;55.592;37.460;2023-04-19T12:47:46;99901.97;;;16.26;27.34
58295;BME280;45705;55.592;37.460;2023-04-19T12:50:13;99881.91;;;16.34;27.16
58295;BME280;45705;55.592;37.460;2023-04-19T12:52:39;99900.06;;;16.18;26.97
58295;BME280;45705;55.592;37.460;2023-04-19T12:55:05;99883.59;;;16.18;27.08
58295;BME280;45705;55.592;37.460;2023-04-19T12:57:31;99897.00;;;16.19;26.95
58295;BME280;45705;55.592;37.460;2023-04-19T12:59:57;99900.53;;;16.20;27.15
58295;BME280;45705;55.592;37.460;2023-04-19T13:02:23;99895.88;;;16.11;27.08